createdAt,value
2022-10-11T00:00:22.136Z,11.45
2022-10-11T00:01:22.157Z,11.33
2022-10-11T00:02:22.075Z,11.36
2022-10-11T00:03:22.086Z,11.26
2022-10-11T00:04:21.988Z,11.22
2022-10-11T00:05:22.035Z,11.18
2022-10-11T00:06:21.930Z,11.14
2022-10-11T00:07:21.901Z,11.07
2022-10-11T00:08:21.858Z,10.94
2022-10-11T00:09:21.908Z,10.92
2022-10-11T00:10:21.804Z,10.90
2022-10-11T00:11:21.760Z,10.89
2022-10-11T00:12:21.727Z,10.87
2022-10-11T00:13:21.689Z,10.76
2022-10-11T00:14:21.655Z,10.78
2022-10-11T00:15:21.692Z,10.75
2022-10-11T00:16:21.596Z,10.78
2022-10-11T00:17:21.563Z,10.79
2022-10-11T00:18:21.548Z,10.78
2022-10-11T00:19:21.570Z,10.78
2022-10-11T00:20:21.456Z,10.84
2022-10-11T00:21:21.432Z,10.87
2022-10-11T00:22:21.387Z,10.75
2022-10-11T00:23:21.356Z,10.78
2022-10-11T00:24:21.324Z,10.75
2022-10-11T00:25:21.357Z,10.68
2022-10-11T00:26:21.301Z,10.74
2022-10-11T00:27:21.247Z,10.79
2022-10-11T00:28:21.238Z,10.72
2022-10-11T00:29:21.180Z,10.64
2022-10-11T00:30:21.192Z,10.61
2022-10-11T00:31:21.123Z,10.57
2022-10-11T00:32:21.059Z,10.60
2022-10-11T00:33:21.030Z,10.54
2022-10-11T00:34:21.615Z,10.49
2022-10-11T00:35:21.018Z,10.40
2022-10-11T00:36:20.928Z,10.44
2022-10-11T00:37:20.899Z,10.35
2022-10-11T00:38:20.856Z,10.34
2022-10-11T00:39:20.901Z,10.31
2022-10-11T00:40:20.807Z,10.20
2022-10-11T00:41:20.761Z,10.17
2022-10-11T00:42:20.726Z,10.07
2022-10-11T00:43:20.691Z,10.01
2022-10-11T00:44:20.674Z,9.92
2022-10-11T00:45:20.679Z,9.95
2022-10-11T00:46:20.593Z,9.86
2022-10-11T00:47:20.547Z,9.84
2022-10-11T00:48:20.519Z,9.79
2022-10-11T00:49:20.567Z,9.76
2022-10-11T00:50:20.459Z,9.69
2022-10-11T00:51:20.433Z,9.80
2022-10-11T00:52:20.397Z,9.69
2022-10-11T00:53:20.365Z,9.79
2022-10-11T00:54:20.317Z,9.74
2022-10-11T00:55:20.337Z,9.76
2022-10-11T00:56:20.239Z,9.64
2022-10-11T00:57:20.209Z,9.68
2022-10-11T00:58:20.173Z,9.65
2022-10-11T00:59:20.165Z,9.61
2022-10-11T01:00:20.176Z,9.64
2022-10-11T01:01:20.140Z,9.56
2022-10-11T01:02:20.038Z,9.62
2022-10-11T01:03:20.003Z,9.51
2022-10-11T01:04:19.976Z,9.58
2022-10-11T01:05:32.848Z,9.48
2022-10-11T01:06:19.912Z,9.56
2022-10-11T01:07:19.873Z,9.43
2022-10-11T01:08:19.840Z,9.43
2022-10-11T01:09:19.821Z,9.48
2022-10-11T01:10:19.825Z,9.40
2022-10-11T01:11:19.739Z,9.39
2022-10-11T01:12:19.711Z,9.25
2022-10-11T01:13:19.670Z,9.22
2022-10-11T01:14:19.649Z,9.18
2022-10-11T01:15:19.656Z,9.18
2022-10-11T01:16:19.564Z,9.11
2022-10-11T01:17:19.602Z,9.00
2022-10-11T01:18:19.500Z,8.99
2022-10-11T01:19:19.470Z,8.95
2022-10-11T01:20:19.464Z,8.95
2022-10-11T01:21:19.445Z,8.94
2022-10-11T01:22:19.363Z,9.00
2022-10-11T01:23:19.397Z,8.91
2022-10-11T01:24:19.304Z,8.79
2022-10-11T01:25:19.269Z,8.87
2022-10-11T01:26:19.229Z,8.73
2022-10-11T01:27:19.189Z,8.81
2022-10-11T01:28:19.300Z,8.81
2022-10-11T01:29:19.143Z,8.81
2022-10-11T01:30:19.103Z,8.87
2022-10-11T01:31:19.071Z,8.85
2022-10-11T01:32:19.035Z,8.84
2022-10-11T01:33:18.998Z,8.71
2022-10-11T01:34:19.011Z,8.69
2022-10-11T01:35:18.919Z,8.73
2022-10-11T01:36:18.887Z,8.71
2022-10-11T01:37:18.846Z,8.70
2022-10-11T01:38:18.815Z,8.78
2022-10-11T01:39:18.792Z,8.74
2022-10-11T01:40:18.805Z,8.89
2022-10-11T01:41:18.715Z,8.91
2022-10-11T01:42:18.704Z,8.92
2022-10-11T01:43:18.708Z,8.88
2022-10-11T01:44:18.652Z,8.85
2022-10-11T01:45:18.587Z,8.88
2022-10-11T01:46:18.541Z,8.85
2022-10-11T01:47:18.516Z,8.84
2022-10-11T01:48:18.529Z,8.81
2022-10-11T01:49:18.453Z,8.70
2022-10-11T01:50:18.415Z,8.78
2022-10-11T01:51:18.365Z,8.74
2022-10-11T01:52:18.334Z,8.60
2022-10-11T01:53:18.375Z,8.55
2022-10-11T01:54:18.287Z,8.55
2022-10-11T01:55:18.243Z,8.46
2022-10-11T01:56:18.201Z,8.49
2022-10-11T01:57:18.166Z,8.38
2022-10-11T01:58:18.125Z,8.41
2022-10-11T01:59:18.177Z,8.30
2022-10-11T02:00:18.073Z,8.31
2022-10-11T02:01:18.061Z,8.30
2022-10-11T02:02:17.994Z,8.24
2022-10-11T02:03:17.957Z,8.23
2022-10-11T02:04:18.014Z,8.23
2022-10-11T02:05:17.895Z,8.10
2022-10-11T02:06:17.873Z,8.10
2022-10-11T02:07:17.828Z,8.12
2022-10-11T02:08:17.789Z,8.13
2022-10-11T02:09:17.861Z,8.09
2022-10-11T02:10:17.722Z,8.06
2022-10-11T02:11:17.693Z,7.94
2022-10-11T02:12:17.654Z,7.97
2022-10-11T02:13:17.626Z,7.97
2022-10-11T02:14:17.577Z,7.98
2022-10-11T02:15:17.622Z,8.03
2022-10-11T02:16:17.513Z,8.08
2022-10-11T02:17:17.480Z,8.00
2022-10-11T02:18:17.448Z,7.98
2022-10-11T02:19:17.414Z,7.98
2022-10-11T02:20:17.441Z,8.06
2022-10-11T02:21:17.332Z,8.09
2022-10-11T02:22:17.309Z,8.10
2022-10-11T02:23:17.268Z,8.06
2022-10-11T02:24:17.230Z,8.05
2022-10-11T02:25:17.258Z,8.09
2022-10-11T02:26:17.160Z,8.03
2022-10-11T02:27:17.132Z,8.05
2022-10-11T02:28:17.121Z,8.10
2022-10-11T02:29:17.065Z,8.06
2022-10-11T02:30:17.322Z,8.12
2022-10-11T02:31:16.982Z,8.09
2022-10-11T02:32:17.018Z,8.01
2022-10-11T02:33:16.915Z,8.06
2022-10-11T02:34:16.943Z,7.94
2022-10-11T02:35:16.845Z,7.97
2022-10-11T02:36:16.811Z,8.01
2022-10-11T02:37:16.780Z,7.91
2022-10-11T02:38:16.757Z,8.06
2022-10-11T02:39:16.710Z,8.00
2022-10-11T02:40:16.736Z,8.00
2022-10-11T02:41:16.653Z,8.01
2022-10-11T02:42:16.614Z,8.12
2022-10-11T02:43:16.603Z,8.01
2022-10-11T02:44:16.529Z,8.00
2022-10-11T02:45:16.577Z,8.08
2022-10-11T02:46:17.743Z,8.08
2022-10-11T02:47:16.427Z,7.91
2022-10-11T02:48:16.393Z,7.87
2022-10-11T02:49:16.354Z,7.90
2022-10-11T02:50:16.322Z,7.97
2022-10-11T02:51:16.346Z,8.06
2022-10-11T02:52:16.256Z,8.06
2022-10-11T02:53:16.227Z,7.98
2022-10-11T02:54:16.186Z,8.03
2022-10-11T02:55:16.219Z,8.05
2022-10-11T02:56:16.117Z,7.94
2022-10-11T02:57:16.077Z,8.00
2022-10-11T02:58:16.055Z,7.94
2022-10-11T02:59:16.013Z,7.97
2022-10-11T03:00:15.975Z,7.95
2022-10-11T03:01:16.044Z,7.94
2022-10-11T03:02:15.905Z,8.01
2022-10-11T03:03:15.891Z,8.06
2022-10-11T03:04:15.839Z,8.05
2022-10-11T03:05:15.802Z,8.08
2022-10-11T03:06:15.765Z,8.09
2022-10-11T03:07:15.782Z,8.12
2022-10-11T03:08:15.700Z,8.09
2022-10-11T03:09:15.662Z,8.10
2022-10-11T03:10:15.687Z,8.09
2022-10-11T03:11:15.590Z,8.10
2022-10-11T03:12:15.632Z,8.10
2022-10-11T03:13:18.262Z,8.13
2022-10-11T03:14:15.484Z,8.13
2022-10-11T03:15:15.455Z,8.08
2022-10-11T03:16:15.522Z,8.03
2022-10-11T03:17:35.079Z,8.03
2022-10-11T03:18:15.407Z,8.12
2022-10-11T03:19:19.110Z,8.09
2022-10-11T03:20:15.285Z,8.09
2022-10-11T03:21:15.244Z,8.03
2022-10-11T03:22:15.206Z,8.03
2022-10-11T03:23:15.166Z,8.06
2022-10-11T03:24:15.182Z,8.01
2022-10-11T03:25:15.113Z,7.95
2022-10-11T03:26:15.068Z,8.00
2022-10-11T03:27:15.027Z,7.93
2022-10-11T03:28:15.046Z,7.98
2022-10-11T03:29:15.039Z,8.03
2022-10-11T03:30:18.011Z,8.03
2022-10-11T03:31:14.887Z,8.08
2022-10-11T03:32:14.853Z,8.12
2022-10-11T03:33:14.828Z,8.06
2022-10-11T03:34:14.840Z,8.10
2022-10-11T03:35:14.747Z,8.18
2022-10-11T03:36:14.718Z,8.08
2022-10-11T03:37:14.717Z,8.10
2022-10-11T03:38:14.646Z,8.10
2022-10-11T03:39:14.662Z,8.23
2022-10-11T03:40:14.575Z,8.18
2022-10-11T03:41:14.539Z,8.12
2022-10-11T03:42:14.511Z,8.10
2022-10-11T03:43:14.481Z,8.06
2022-10-11T03:44:14.491Z,8.01
2022-10-11T03:45:14.402Z,8.03
2022-10-11T03:46:14.403Z,8.06
2022-10-11T03:47:14.369Z,8.05
2022-10-11T03:48:14.295Z,7.95
2022-10-11T03:49:14.318Z,8.00
2022-10-11T03:50:14.226Z,8.00
2022-10-11T03:51:14.242Z,7.98
2022-10-11T03:52:14.159Z,7.95
2022-10-11T03:53:14.128Z,8.01
2022-10-11T03:54:14.161Z,8.03
2022-10-11T03:55:14.056Z,7.95
2022-10-11T03:56:14.586Z,7.98
2022-10-11T03:57:13.992Z,8.06
2022-10-11T03:58:13.944Z,8.10
2022-10-11T03:59:13.912Z,8.16
2022-10-11T04:00:13.932Z,8.13
2022-10-11T04:01:13.864Z,8.18
2022-10-11T04:02:13.860Z,8.18
2022-10-11T04:03:13.780Z,8.23
2022-10-11T04:04:13.816Z,8.18
2022-10-11T04:05:13.703Z,8.19
2022-10-11T04:06:13.670Z,8.19
2022-10-11T04:07:13.634Z,8.24
2022-10-11T04:08:13.598Z,8.20
2022-10-11T04:09:13.567Z,8.12
2022-10-11T04:10:13.586Z,8.13
2022-10-11T04:11:13.544Z,8.20
2022-10-11T04:12:13.458Z,8.16
2022-10-11T04:13:13.427Z,8.12
2022-10-11T04:14:13.406Z,8.12
2022-10-11T04:15:13.365Z,8.09
2022-10-11T04:16:13.383Z,8.06
2022-10-11T04:17:13.285Z,8.06
2022-10-11T04:18:13.254Z,8.06
2022-10-11T04:19:13.223Z,8.12
2022-10-11T04:20:13.189Z,8.15
2022-10-11T04:21:13.148Z,8.19
2022-10-11T04:22:13.392Z,8.24
2022-10-11T04:23:13.153Z,8.20
2022-10-11T04:24:13.048Z,8.19
2022-10-11T04:25:13.008Z,8.16
2022-10-11T04:26:12.988Z,8.20
2022-10-11T04:27:12.939Z,8.27
2022-10-11T04:28:12.934Z,8.27
2022-10-11T04:29:12.931Z,8.16
2022-10-11T04:30:12.836Z,8.12
2022-10-11T04:31:12.807Z,8.18
2022-10-11T04:32:12.780Z,8.06
2022-10-11T04:33:12.727Z,8.15
2022-10-11T04:34:12.744Z,8.09
2022-10-11T04:35:12.664Z,8.15
2022-10-11T04:36:12.695Z,8.20
2022-10-11T04:37:12.586Z,8.20
2022-10-11T04:38:12.561Z,8.20
2022-10-11T04:39:12.518Z,8.23
2022-10-11T04:40:12.493Z,8.33
2022-10-11T04:41:12.458Z,8.27
2022-10-11T04:42:12.468Z,8.31
2022-10-11T04:43:12.395Z,8.33
2022-10-11T04:44:12.349Z,8.24
2022-10-11T04:45:12.389Z,8.23
2022-10-11T04:46:12.276Z,8.19
2022-10-11T04:47:12.247Z,8.09
2022-10-11T04:48:12.206Z,8.13
2022-10-11T04:49:12.169Z,8.13
2022-10-11T04:50:12.133Z,8.13
2022-10-11T04:51:12.151Z,8.10
2022-10-11T04:52:12.075Z,8.10
2022-10-11T04:53:12.087Z,8.13
2022-10-11T04:54:12.007Z,8.05
2022-10-11T04:55:11.973Z,8.12
2022-10-11T04:56:11.926Z,8.09
2022-10-11T04:57:11.952Z,8.08
2022-10-11T04:58:11.857Z,8.13
2022-10-11T04:59:11.832Z,8.10
2022-10-11T05:00:11.788Z,8.10
2022-10-11T05:01:11.750Z,8.19
2022-10-11T05:02:11.891Z,8.16
2022-10-11T05:03:11.680Z,8.05
2022-10-11T05:04:11.676Z,8.13
2022-10-11T05:05:11.611Z,8.09
2022-10-11T05:06:11.986Z,8.10
2022-10-11T05:07:11.589Z,8.13
2022-10-11T05:08:11.507Z,8.16
2022-10-11T05:09:11.481Z,8.20
2022-10-11T05:10:11.441Z,8.19
2022-10-11T05:11:11.405Z,8.18
2022-10-11T05:12:11.421Z,8.18
2022-10-11T05:13:11.347Z,8.20
2022-10-11T05:14:11.313Z,8.18
2022-10-11T05:15:11.267Z,8.12
2022-10-11T05:16:11.899Z,8.09
2022-10-11T05:17:11.244Z,8.06
2022-10-11T05:18:11.159Z,8.08
2022-10-11T05:19:11.126Z,8.15
2022-10-11T05:20:11.093Z,8.06
2022-10-11T05:21:11.056Z,8.16
2022-10-11T05:22:11.074Z,8.12
2022-10-11T05:23:10.981Z,8.13
2022-10-11T05:24:10.951Z,8.08
2022-10-11T05:25:10.917Z,8.05
2022-10-11T05:26:10.911Z,8.06
2022-10-11T05:27:10.911Z,8.13
2022-10-11T05:28:10.839Z,8.06
2022-10-11T05:29:10.785Z,8.09
2022-10-11T05:30:10.752Z,8.09
2022-10-11T05:31:10.710Z,8.13
2022-10-11T05:32:10.669Z,8.15
2022-10-11T05:33:10.704Z,8.09
2022-10-11T05:34:10.614Z,8.16
2022-10-11T05:35:10.571Z,8.18
2022-10-11T05:36:10.545Z,8.13
2022-10-11T05:37:10.498Z,8.20
2022-10-11T05:38:10.551Z,8.12
2022-10-11T05:39:10.426Z,8.03
2022-10-11T05:40:10.400Z,8.19
2022-10-11T05:41:10.358Z,8.19
2022-10-11T05:42:10.325Z,8.16
2022-10-11T05:43:10.287Z,8.16
2022-10-11T05:44:10.313Z,8.06
2022-10-11T05:45:10.222Z,8.18
2022-10-11T05:46:10.189Z,8.16
2022-10-11T05:47:10.155Z,8.18
2022-10-11T05:48:10.114Z,8.18
2022-10-11T05:49:10.137Z,8.16
2022-10-11T05:50:10.059Z,8.15
2022-10-11T05:51:10.016Z,8.27
2022-10-11T05:52:09.990Z,8.09
2022-10-11T05:53:09.957Z,8.15
2022-10-11T05:54:09.905Z,8.06
2022-10-11T05:55:09.916Z,8.12
2022-10-11T05:56:09.844Z,8.06
2022-10-11T05:57:09.807Z,8.18
2022-10-11T05:58:09.782Z,8.13
2022-10-11T05:59:09.756Z,8.03
2022-10-11T06:00:09.767Z,8.15
2022-10-11T06:01:10.360Z,8.16
2022-10-11T06:02:09.640Z,8.20
2022-10-11T06:03:09.599Z,8.24
2022-10-11T06:04:09.557Z,8.20
2022-10-11T06:05:09.571Z,8.18
2022-10-11T06:06:10.016Z,8.18
2022-10-11T06:07:09.456Z,8.19
2022-10-11T06:08:09.430Z,8.16
2022-10-11T06:09:09.395Z,8.26
2022-10-11T06:10:09.407Z,8.24
2022-10-11T06:11:12.058Z,8.16
2022-10-11T06:12:09.283Z,8.24
2022-10-11T06:13:09.243Z,8.30
2022-10-11T06:14:09.270Z,8.24
2022-10-11T06:15:09.177Z,8.36
2022-10-11T06:16:09.151Z,8.34
2022-10-11T06:17:09.113Z,8.26
2022-10-11T06:18:09.077Z,8.24
2022-10-11T06:19:09.041Z,8.34
2022-10-11T06:20:09.066Z,8.44
2022-10-11T06:21:08.965Z,8.33
2022-10-11T06:22:08.946Z,8.37
2022-10-11T06:23:08.906Z,8.41
2022-10-11T06:24:08.869Z,8.37
2022-10-11T06:25:08.829Z,8.52
2022-10-11T06:26:09.800Z,8.33
2022-10-11T06:27:08.764Z,8.49
2022-10-11T06:28:08.838Z,8.48
2022-10-11T06:29:08.702Z,8.53
2022-10-11T06:30:08.658Z,8.53
2022-10-11T06:31:08.626Z,8.53
2022-10-11T06:32:08.642Z,8.46
2022-10-11T06:33:08.554Z,8.51
2022-10-11T06:34:08.523Z,8.60
2022-10-11T06:35:08.491Z,8.55
2022-10-11T06:36:08.704Z,8.61
2022-10-11T06:37:08.464Z,8.53
2022-10-11T06:38:08.389Z,8.58
2022-10-11T06:39:08.345Z,8.51
2022-10-11T06:40:08.312Z,8.67
2022-10-11T06:41:08.281Z,8.66
2022-10-11T06:42:08.288Z,8.66
2022-10-11T06:43:08.213Z,8.69
2022-10-11T06:44:13.272Z,8.67
2022-10-11T06:45:08.141Z,8.66
2022-10-11T06:46:08.435Z,8.71
2022-10-11T06:47:08.138Z,8.66
2022-10-11T06:48:08.043Z,8.71
2022-10-11T06:49:08.005Z,8.73
2022-10-11T06:50:07.982Z,8.74
2022-10-11T06:51:07.939Z,8.74
2022-10-11T06:52:07.900Z,8.73
2022-10-11T06:53:07.944Z,8.66
2022-10-11T06:54:07.836Z,8.82
2022-10-11T06:55:07.794Z,8.89
2022-10-11T06:56:08.481Z,8.85
2022-10-11T06:57:07.756Z,8.91
2022-10-11T06:58:07.696Z,8.97
2022-10-11T06:59:07.710Z,9.00
2022-10-11T07:00:11.764Z,8.99
2022-10-11T07:01:07.638Z,9.06
2022-10-11T07:02:07.556Z,9.14
2022-10-11T07:03:07.522Z,9.19
2022-10-11T07:04:07.547Z,9.11
2022-10-11T07:05:07.453Z,9.26
2022-10-11T07:06:07.848Z,9.26
2022-10-11T07:07:07.384Z,9.26
2022-10-11T07:08:07.416Z,9.31
2022-10-11T07:09:07.352Z,9.37
2022-10-11T07:10:07.327Z,9.39
2022-10-11T07:11:07.263Z,9.41
2022-10-11T07:12:07.215Z,9.39
2022-10-11T07:13:07.242Z,9.41
2022-10-11T07:14:07.146Z,9.43
2022-10-11T07:15:07.115Z,9.51
2022-10-11T07:16:07.535Z,9.51
2022-10-11T07:17:07.044Z,9.58
2022-10-11T07:18:07.016Z,9.58
2022-10-11T07:19:07.017Z,9.56
2022-10-11T07:20:06.936Z,9.56
2022-10-11T07:21:06.959Z,9.54
2022-10-11T07:22:06.874Z,9.56
2022-10-11T07:23:06.839Z,9.54
2022-10-11T07:24:06.803Z,9.61
2022-10-11T07:25:06.770Z,9.54
2022-10-11T07:26:06.970Z,9.54
2022-10-11T07:27:06.750Z,9.62
2022-10-11T07:28:06.673Z,9.59
2022-10-11T07:29:06.689Z,9.66
2022-10-11T07:30:06.604Z,9.79
2022-10-11T07:31:06.580Z,9.76
2022-10-11T07:32:06.534Z,9.73
2022-10-11T07:33:06.590Z,9.73
2022-10-11T07:34:06.481Z,9.82
2022-10-11T07:35:06.427Z,9.74
2022-10-11T07:36:06.872Z,9.82
2022-10-11T07:37:06.373Z,9.86
2022-10-11T07:38:06.331Z,9.87
2022-10-11T07:39:06.343Z,9.91
2022-10-11T07:40:06.257Z,9.97
2022-10-11T07:41:06.233Z,9.98
2022-10-11T07:42:06.191Z,9.99
2022-10-11T07:43:06.178Z,10.02
2022-10-11T07:44:06.212Z,10.01
2022-10-11T07:45:06.094Z,9.99
2022-10-11T07:46:06.383Z,9.99
2022-10-11T07:47:10.916Z,10.04
2022-10-11T07:48:05.989Z,10.12
2022-10-11T07:49:05.955Z,10.13
2022-10-11T07:50:05.998Z,10.23
2022-10-11T07:51:05.897Z,10.17
2022-10-11T07:52:05.868Z,10.22
2022-10-11T07:53:05.814Z,10.23
2022-10-11T07:54:07.436Z,10.23
2022-10-11T07:55:05.746Z,10.35
2022-10-11T07:56:05.969Z,10.33
2022-10-11T07:57:05.682Z,10.37
2022-10-11T07:58:05.658Z,10.35
2022-10-11T07:59:05.615Z,10.44
2022-10-11T08:00:05.587Z,10.46
2022-10-11T08:01:05.661Z,10.40
2022-10-11T08:02:05.529Z,10.46
2022-10-11T08:03:05.486Z,10.63
2022-10-11T08:04:05.449Z,10.57
2022-10-11T08:05:05.418Z,10.63
2022-10-11T08:06:05.713Z,10.67
2022-10-11T08:07:05.407Z,10.61
2022-10-11T08:08:05.311Z,10.68
2022-10-11T08:09:05.280Z,10.68
2022-10-11T08:10:05.245Z,10.79
2022-10-11T08:11:05.225Z,10.74
2022-10-11T08:12:05.180Z,10.75
2022-10-11T08:13:05.220Z,10.75
2022-10-11T08:14:05.117Z,10.82
2022-10-11T08:15:05.124Z,10.76
2022-10-11T08:16:05.521Z,10.81
2022-10-11T08:17:05.017Z,10.82
2022-10-11T08:18:04.994Z,10.86
2022-10-11T08:19:05.009Z,10.94
2022-10-11T08:20:04.910Z,10.99
2022-10-11T08:21:04.905Z,10.92
2022-10-11T08:22:04.847Z,10.99
2022-10-11T08:23:04.809Z,10.93
2022-10-11T08:24:04.780Z,11.04
2022-10-11T08:25:04.846Z,10.99
2022-10-11T08:26:05.081Z,11.02
2022-10-11T08:27:04.678Z,11.17
2022-10-11T08:28:04.646Z,11.12
2022-10-11T08:29:04.698Z,11.11
2022-10-11T08:30:04.587Z,11.18
2022-10-11T08:31:04.540Z,11.19
2022-10-11T08:32:04.576Z,11.26
2022-10-11T08:33:08.459Z,11.26
2022-10-11T08:34:04.462Z,11.25
2022-10-11T08:35:04.414Z,11.26
2022-10-11T08:36:04.834Z,11.23
2022-10-11T08:37:04.348Z,11.27
2022-10-11T08:38:04.361Z,11.37
2022-10-11T08:39:04.289Z,11.26
2022-10-11T08:40:04.254Z,11.30
2022-10-11T08:41:04.281Z,11.33
2022-10-11T08:42:04.187Z,11.35
2022-10-11T08:43:04.151Z,11.33
2022-10-11T08:44:04.116Z,11.32
2022-10-11T08:45:10.936Z,11.44
2022-10-11T08:46:04.463Z,11.40
2022-10-11T08:47:04.098Z,11.44
2022-10-11T08:48:03.979Z,11.50
2022-10-11T08:49:03.951Z,11.48
2022-10-11T08:50:03.912Z,11.54
2022-10-11T08:51:03.879Z,11.55
2022-10-11T08:52:03.849Z,11.62
2022-10-11T08:53:03.948Z,11.57
2022-10-11T08:54:07.593Z,11.60
2022-10-11T08:55:03.755Z,11.66
2022-10-11T08:56:04.222Z,11.65
2022-10-11T08:57:03.685Z,11.65
2022-10-11T08:58:03.649Z,11.65
2022-10-11T08:59:03.666Z,11.70
2022-10-11T09:00:03.612Z,11.70
2022-10-11T09:01:03.597Z,11.77
2022-10-11T09:02:03.518Z,11.84
2022-10-11T09:03:08.412Z,11.83
2022-10-11T09:04:03.497Z,11.91
2022-10-11T09:05:03.420Z,11.94
2022-10-11T09:06:03.809Z,11.91
2022-10-11T09:07:05.041Z,11.99
2022-10-11T09:08:03.337Z,12.00
2022-10-11T09:09:03.287Z,12.04
2022-10-11T09:10:03.251Z,12.06
2022-10-11T09:11:03.223Z,12.12
2022-10-11T09:12:03.235Z,12.15
2022-10-11T09:13:03.152Z,12.31
2022-10-11T09:14:03.125Z,12.35
2022-10-11T09:15:03.085Z,12.25
2022-10-11T09:16:03.426Z,12.25
2022-10-11T09:17:03.072Z,12.35
2022-10-11T09:18:02.984Z,12.43
2022-10-11T09:19:03.847Z,12.37
2022-10-11T09:20:02.934Z,12.36
2022-10-11T09:21:02.892Z,12.37
2022-10-11T09:22:02.941Z,12.29
2022-10-11T09:23:02.829Z,12.28
2022-10-11T09:24:02.798Z,12.28
2022-10-11T09:25:02.762Z,12.28
2022-10-11T09:26:03.047Z,12.25
2022-10-11T09:27:02.688Z,12.32
2022-10-11T09:28:03.786Z,12.43
2022-10-11T09:29:02.725Z,12.32
2022-10-11T09:30:02.599Z,12.40
2022-10-11T09:31:02.566Z,12.42
2022-10-11T09:32:02.572Z,12.47
2022-10-11T09:33:02.696Z,12.46
2022-10-11T09:34:02.478Z,12.46
2022-10-11T09:35:02.478Z,12.43
2022-10-11T09:36:02.711Z,12.53
2022-10-11T09:37:02.513Z,12.43
2022-10-11T09:38:02.400Z,12.54
2022-10-11T09:39:06.445Z,12.58
2022-10-11T09:40:02.359Z,12.65
2022-10-11T09:41:02.333Z,12.73
2022-10-11T09:42:02.333Z,12.68
2022-10-11T09:43:02.382Z,12.70
2022-10-11T09:44:02.235Z,12.70
2022-10-11T09:45:02.223Z,12.78
2022-10-11T09:46:02.357Z,12.85
2022-10-11T09:47:02.128Z,12.85
2022-10-11T09:48:02.216Z,12.85
2022-10-11T09:49:02.080Z,12.93
2022-10-11T09:50:02.033Z,12.94
2022-10-11T09:51:01.958Z,12.95
2022-10-11T09:52:01.982Z,12.93
2022-10-11T09:53:01.976Z,12.86
2022-10-11T09:54:01.993Z,12.93
2022-10-11T09:55:01.880Z,12.97
2022-10-11T09:56:02.103Z,13.03
2022-10-11T09:57:01.807Z,13.04
2022-10-11T09:58:01.773Z,13.05
2022-10-11T09:59:01.831Z,13.04
2022-10-11T10:00:01.645Z,13.09
2022-10-11T10:01:07.400Z,13.18
2022-10-11T10:02:01.781Z,13.16
2022-10-11T10:03:01.620Z,13.08
2022-10-11T10:04:01.680Z,13.23
2022-10-11T10:05:01.571Z,13.28
2022-10-11T10:06:01.601Z,13.27
2022-10-11T10:07:01.477Z,13.23
2022-10-11T10:08:04.488Z,13.22
2022-10-11T10:09:01.516Z,13.27
2022-10-11T10:10:01.297Z,13.19
2022-10-11T10:11:01.352Z,13.30
2022-10-11T10:12:01.319Z,13.25
2022-10-11T10:13:01.290Z,13.19
2022-10-11T10:14:01.356Z,13.33
2022-10-11T10:15:01.148Z,13.27
2022-10-11T10:16:01.212Z,13.27
2022-10-11T10:17:01.166Z,13.35
2022-10-11T10:18:01.134Z,13.39
2022-10-11T10:19:01.212Z,13.33
2022-10-11T10:20:01.068Z,13.47
2022-10-11T10:21:01.043Z,13.53
2022-10-11T10:22:01.017Z,13.53
2022-10-11T10:23:00.981Z,13.65
2022-10-11T10:24:01.052Z,13.68
2022-10-11T10:25:00.938Z,13.72
2022-10-11T10:26:00.791Z,13.75
2022-10-11T10:27:00.851Z,13.89
2022-10-11T10:28:00.829Z,13.89
2022-10-11T10:29:00.983Z,13.97
2022-10-11T10:30:00.756Z,14.07
2022-10-11T10:31:00.719Z,14.10
2022-10-11T10:32:15.947Z,14.11
2022-10-11T10:33:00.699Z,14.10
2022-10-11T10:34:00.622Z,14.12
2022-10-11T10:35:00.715Z,14.23
2022-10-11T10:36:00.559Z,14.26
2022-10-11T10:37:00.565Z,14.32
2022-10-11T10:38:00.499Z,14.37
2022-10-11T10:39:00.463Z,14.48
2022-10-11T10:40:00.544Z,14.60
2022-10-11T10:41:00.406Z,14.65
2022-10-11T10:42:00.285Z,14.78
2022-10-11T10:43:00.246Z,14.96
2022-10-11T10:44:00.214Z,15.00
2022-10-11T10:45:00.262Z,15.07
2022-10-11T10:46:00.149Z,15.09
2022-10-11T10:47:00.118Z,15.10
2022-10-11T10:48:00.142Z,15.22
2022-10-11T10:50:00.025Z,15.36
2022-10-11T10:51:00.051Z,15.43
2022-10-11T10:51:59.962Z,15.51
2022-10-11T10:52:59.932Z,15.49
2022-10-11T10:53:59.903Z,15.64
2022-10-11T10:54:59.879Z,15.73
2022-10-11T10:55:59.837Z,15.75
2022-10-11T10:56:59.866Z,15.75
2022-10-11T10:57:59.781Z,15.80
2022-10-11T10:58:59.829Z,15.86
2022-10-11T10:59:59.719Z,16.02
2022-10-11T11:00:59.681Z,16.02
2022-10-11T11:02:11.134Z,16.08
2022-10-11T11:02:59.783Z,16.13
2022-10-11T11:03:59.594Z,15.94
2022-10-11T11:05:59.587Z,15.97
2022-10-11T11:06:59.495Z,16.05
2022-10-11T11:07:59.478Z,16.04
2022-10-11T11:09:00.246Z,16.02
2022-10-11T11:09:59.404Z,16.09
2022-10-11T11:10:59.452Z,16.12
2022-10-11T11:11:59.350Z,16.12
2022-10-11T11:12:59.325Z,16.17
2022-10-11T11:13:59.300Z,16.29
2022-10-11T11:14:59.259Z,16.15
2022-10-11T11:15:59.233Z,16.05
2022-10-11T11:16:59.249Z,15.98
2022-10-11T11:17:59.191Z,15.90
2022-10-11T11:18:59.146Z,15.86
2022-10-11T11:20:06.888Z,15.77
2022-10-11T11:20:59.086Z,15.80
2022-10-11T11:21:59.098Z,15.70
2022-10-11T11:22:59.026Z,15.68
2022-10-11T11:23:58.983Z,15.65
2022-10-11T11:24:58.975Z,15.70
2022-10-11T11:25:58.928Z,15.70
2022-10-11T11:26:58.964Z,15.80
2022-10-11T11:27:58.932Z,15.98
2022-10-11T11:28:58.838Z,16.23
2022-10-11T11:29:58.821Z,16.28
2022-10-11T11:30:58.778Z,16.42
2022-10-11T11:31:58.816Z,16.47
2022-10-11T11:32:58.716Z,16.41
2022-10-11T11:33:58.692Z,16.32
2022-10-11T11:34:58.660Z,16.21
2022-10-11T11:35:58.626Z,16.32
2022-10-11T11:36:58.608Z,16.29
2022-10-11T11:38:03.850Z,16.31
2022-10-11T11:38:58.536Z,16.15
2022-10-11T11:39:58.552Z,16.17
2022-10-11T11:40:58.474Z,16.21
2022-10-11T11:41:58.561Z,16.41
2022-10-11T11:42:58.712Z,16.54
2022-10-11T11:43:58.385Z,16.66
2022-10-11T11:44:58.358Z,16.78
2022-10-11T11:45:58.333Z,16.97
2022-10-11T11:46:58.296Z,17.23
2022-10-11T11:47:58.354Z,17.31
2022-10-11T11:48:58.236Z,17.38
2022-10-11T11:49:58.206Z,17.56
2022-10-11T11:50:58.179Z,17.54
2022-10-11T11:51:58.150Z,17.67
2022-10-11T11:52:58.125Z,17.38
2022-10-11T11:53:58.139Z,17.29
2022-10-11T11:55:01.455Z,17.22
2022-10-11T11:55:58.035Z,17.11
2022-10-11T11:56:57.998Z,16.81
2022-10-11T11:57:57.987Z,16.72
2022-10-11T11:58:58.032Z,16.71
2022-10-11T11:59:57.915Z,16.94
2022-10-11T12:00:57.887Z,16.90
2022-10-11T12:01:57.889Z,16.97
2022-10-11T12:02:57.828Z,16.99
2022-10-11T12:03:57.849Z,17.04
2022-10-11T12:04:57.778Z,17.05
2022-10-11T12:05:57.743Z,17.02
2022-10-11T12:07:14.984Z,17.08
2022-10-11T12:07:57.734Z,17.06
2022-10-11T12:08:57.723Z,17.16
2022-10-11T12:09:57.626Z,17.16
2022-10-11T12:10:57.595Z,17.30
2022-10-11T12:11:57.565Z,17.23
2022-10-11T12:12:57.538Z,17.26
2022-10-11T12:13:58.349Z,17.33
2022-10-11T12:14:57.529Z,17.26
2022-10-11T12:15:57.444Z,17.23
2022-10-11T12:16:57.420Z,17.24
2022-10-11T12:17:57.393Z,17.30
2022-10-11T12:18:57.362Z,17.26
2022-10-11T12:19:57.396Z,17.45
2022-10-11T12:20:57.302Z,17.63
2022-10-11T12:21:57.271Z,17.64
2022-10-11T12:22:57.245Z,17.68
2022-10-11T12:23:57.217Z,17.76
2022-10-11T12:24:57.183Z,17.80
2022-10-11T12:25:57.899Z,17.82
2022-10-11T12:26:57.138Z,17.90
2022-10-11T12:27:57.099Z,17.90
2022-10-11T12:28:57.075Z,17.90
2022-10-11T12:29:57.052Z,17.87
2022-10-11T12:30:57.083Z,17.83
2022-10-11T12:31:56.991Z,17.76
2022-10-11T12:32:56.963Z,17.57
2022-10-11T12:33:56.928Z,17.56
2022-10-11T12:34:56.901Z,17.39
2022-10-11T12:35:56.895Z,17.49
2022-10-11T12:36:56.901Z,17.46
2022-10-11T12:37:56.819Z,17.45
2022-10-11T12:38:56.792Z,17.30
2022-10-11T12:39:56.762Z,17.22
2022-10-11T12:40:56.730Z,17.12
2022-10-11T12:41:56.757Z,16.96
2022-10-11T12:42:56.678Z,16.90
2022-10-11T12:43:56.648Z,16.83
2022-10-11T12:44:56.687Z,16.81
2022-10-11T12:45:56.591Z,16.68
2022-10-11T12:46:56.630Z,16.51
2022-10-11T12:47:56.546Z,16.35
2022-10-11T12:48:56.493Z,16.24
2022-10-11T12:49:56.477Z,16.20
2022-10-11T12:51:00.782Z,16.08
2022-10-11T12:51:56.412Z,16.02
2022-10-11T12:52:56.438Z,16.09
2022-10-11T12:54:21.541Z,16.04
2022-10-11T12:54:56.325Z,16.08
2022-10-11T12:55:56.295Z,16.12
2022-10-11T12:56:56.266Z,16.21
2022-10-11T12:57:56.291Z,16.16
2022-10-11T12:58:56.202Z,16.08
2022-10-11T12:59:56.214Z,16.04
2022-10-11T13:00:56.228Z,16.08
2022-10-11T13:01:56.126Z,16.08
2022-10-11T13:02:56.144Z,16.05
2022-10-11T13:03:56.057Z,16.15
2022-10-11T13:04:56.028Z,16.23
2022-10-11T13:05:58.048Z,16.17
2022-10-11T13:06:55.966Z,16.10
2022-10-11T13:07:56.010Z,16.01